Time;durP1;ratioP1;P1;durP2;ratioP2;P2;SDS_P1;SDS_P2;PMS_P1;PMS_P2;Temp;Humidity;BMP_temperature;BMP_pressure;BME280_temperature;BME280_humidity;BME280_pressure;Samples;Min_cycle;Max_cycle;Signal;HPM_P1;HPM_P2
2024/01/13 00:01:58;;;;;;;2.05;1.10;;;2.10;99.90;;;;;;4996863;28;20034;-70
2024/01/13 00:04:24;;;;;;;2.83;1.17;;;2.10;99.90;;;;;;4993739;28;20394;-68
2024/01/13 00:06:49;;;;;;;2.92;1.52;;;2.10;99.90;;;;;;5002026;28;20180;-69
2024/01/13 00:09:15;;;;;;;3.72;1.30;;;2.20;99.90;;;;;;4994531;28;20379;-69
2024/01/13 00:11:40;;;;;;;2.47;1.45;;;2.10;99.90;;;;;;4999778;28;20085;-68
2024/01/13 00:14:06;;;;;;;2.47;1.20;;;2.20;99.90;;;;;;5003180;28;20038;-69
2024/01/13 00:16:31;;;;;;;3.50;1.70;;;2.10;99.90;;;;;;5006099;28;20082;-69
2024/01/13 00:18:57;;;;;;;2.90;1.70;;;2.10;99.90;;;;;;5005245;28;20455;-69
2024/01/13 00:21:22;;;;;;;3.22;1.48;;;2.10;99.90;;;;;;4996805;28;20602;-69
2024/01/13 00:23:48;;;;;;;4.72;1.65;;;2.10;99.90;;;;;;5003505;28;20034;-69
2024/01/13 00:26:13;;;;;;;2.00;1.13;;;2.10;99.90;;;;;;5006730;28;20038;-68
2024/01/13 00:28:39;;;;;;;2.90;1.55;;;2.10;99.90;;;;;;5000068;28;20407;-69
2024/01/13 00:31:05;;;;;;;3.97;1.50;;;2.20;99.90;;;;;;4997112;28;20035;-69
2024/01/13 00:33:30;;;;;;;3.88;1.67;;;2.20;99.90;;;;;;5000234;28;20076;-69
2024/01/13 00:35:56;;;;;;;2.25;1.23;;;2.20;99.90;;;;;;4998370;28;20062;-69
2024/01/13 00:38:21;;;;;;;2.65;1.58;;;2.20;99.90;;;;;;4997844;28;20367;-69
2024/01/13 00:40:46;;;;;;;1.73;0.90;;;2.10;99.90;;;;;;5003514;28;20101;-69
2024/01/13 00:43:12;;;;;;;2.17;1.23;;;2.10;99.90;;;;;;4975790;28;20034;-69
2024/01/13 00:45:37;;;;;;;1.65;0.80;;;2.10;99.90;;;;;;4996688;28;20479;-69
2024/01/13 00:48:03;;;;;;;4.15;1.65;;;2.10;99.90;;;;;;4998980;28;20034;-68
2024/01/13 00:50:29;;;;;;;2.22;1.27;;;2.10;99.90;;;;;;4994786;28;20074;-69
2024/01/13 00:52:54;;;;;;;2.25;1.25;;;2.10;99.90;;;;;;5004198;28;20034;-69
2024/01/13 00:55:20;;;;;;;3.17;1.42;;;2.10;99.90;;;;;;5000500;28;20068;-69
2024/01/13 00:57:45;;;;;;;3.58;1.50;;;2.10;99.90;;;;;;5004069;28;20036;-69
2024/01/13 01:00:11;;;;;;;2.28;1.15;;;2.10;99.90;;;;;;4998044;28;20332;-68
2024/01/13 01:02:36;;;;;;;1.65;1.02;;;2.10;99.90;;;;;;5001155;28;20122;-69
2024/01/13 01:05:03;;;;;;;1.50;1.00;;;2.10;99.90;;;;;;4979592;28;20061;-68
2024/01/13 01:07:28;;;;;;;1.58;0.88;;;2.10;99.90;;;;;;5005423;28;20052;-68
2024/01/13 01:09:53;;;;;;;3.05;1.00;;;2.10;99.90;;;;;;4997823;28;20038;-69
2024/01/13 01:12:19;;;;;;;2.95;1.50;;;2.10;99.90;;;;;;5000908;28;20042;-69
2024/01/13 01:14:44;;;;;;;2.55;1.77;;;2.10;99.90;;;;;;4996407;28;20050;-70
2024/01/13 01:17:10;;;;;;;2.33;1.20;;;2.10;99.90;;;;;;4997892;28;20409;-69
2024/01/13 01:19:35;;;;;;;2.42;1.40;;;2.10;99.90;;;;;;4998030;28;20080;-68
2024/01/13 01:22:01;;;;;;;2.55;1.55;;;2.10;99.90;;;;;;5001458;28;20078;-69
2024/01/13 01:24:26;;;;;;;2.55;1.20;;;2.10;99.90;;;;;;5004115;28;20452;-69
2024/01/13 01:26:52;;;;;;;2.50;1.52;;;2.10;99.90;;;;;;4999804;28;20042;-69
2024/01/13 01:29:17;;;;;;;2.35;1.13;;;2.10;99.90;;;;;;4999690;28;20110;-68
2024/01/13 01:31:43;;;;;;;3.00;1.30;;;2.10;99.90;;;;;;5000976;28;20057;-69
2024/01/13 01:34:08;;;;;;;2.47;1.13;;;2.10;99.90;;;;;;4985501;28;20426;-69
2024/01/13 01:36:34;;;;;;;3.38;1.38;;;2.10;99.90;;;;;;5001329;28;20454;-69
2024/01/13 01:38:59;;;;;;;1.73;1.13;;;2.10;99.90;;;;;;5003094;28;20160;-69
2024/01/13 01:41:25;;;;;;;3.95;0.90;;;2.10;99.90;;;;;;4999145;28;20053;-70
2024/01/13 01:43:50;;;;;;;2.28;1.00;;;2.10;99.90;;;;;;4995719;28;20053;-68
2024/01/13 01:46:19;;;;;;;1.48;0.80;;;2.10;99.90;;;;;;5004883;28;20062;-68
2024/01/13 01:48:46;;;;;;;2.70;1.05;;;2.00;99.90;;;;;;4980730;28;20502;-70
2024/01/13 01:51:15;;;;;;;1.50;0.90;;;2.00;99.90;;;;;;4997179;28;20436;-69
2024/01/13 01:53:42;;;;;;;1.65;0.80;;;2.10;99.90;;;;;;4992796;28;20038;-70
2024/01/13 01:56:18;;;;;;;2.90;1.23;;;2.00;99.90;;;;;;5001094;28;20419;-68
2024/01/13 01:58:46;;;;;;;1.55;1.00;;;2.00;99.90;;;;;;4999973;28;20038;-69
2024/01/13 02:01:13;;;;;;;2.03;0.90;;;2.00;99.90;;;;;;4997643;28;20045;-69
2024/01/13 02:03:39;;;;;;;2.33;0.98;;;2.00;99.90;;;;;;4997476;28;20038;-69
2024/01/13 02:06:05;;;;;;;2.65;1.42;;;2.00;99.90;;;;;;4995136;28;20355;-68
2024/01/13 02:08:31;;;;;;;3.47;1.38;;;2.00;99.90;;;;;;5000219;28;20458;-69
2024/01/13 02:10:56;;;;;;;1.52;0.88;;;2.00;99.90;;;;;;5001744;28;20033;-68
2024/01/13 02:13:22;;;;;;;2.60;1.05;;;2.00;99.90;;;;;;5003848;28;20386;-68
2024/01/13 02:15:47;;;;;;;2.17;1.30;;;2.00;99.90;;;;;;5001446;28;20038;-69
2024/01/13 02:18:13;;;;;;;1.70;1.00;;;2.00;99.90;;;;;;5001287;28;20029;-68
2024/01/13 02:20:38;;;;;;;1.55;0.77;;;2.00;99.90;;;;;;4997132;28;20161;-69
2024/01/13 02:23:04;;;;;;;2.78;1.10;;;2.00;99.90;;;;;;4997483;28;20029;-69
2024/01/13 02:25:29;;;;;;;2.47;1.15;;;2.00;99.90;;;;;;4994771;28;20426;-68
2024/01/13 02:27:54;;;;;;;2.67;1.25;;;2.00;99.90;;;;;;4988908;28;20117;-69
2024/01/13 02:30:20;;;;;;;1.70;1.02;;;2.00;99.90;;;;;;4991435;28;20404;-68
2024/01/13 02:32:45;;;;;;;2.53;1.10;;;2.00;99.90;;;;;;4997208;28;20064;-68
2024/01/13 02:35:11;;;;;;;3.90;1.50;;;2.00;99.90;;;;;;4996473;28;20041;-69
2024/01/13 02:37:36;;;;;;;2.15;1.13;;;1.90;99.90;;;;;;5004491;28;20088;-69
2024/01/13 02:40:02;;;;;;;3.83;1.60;;;2.00;99.90;;;;;;5002908;28;20108;-69
2024/01/13 02:42:28;;;;;;;2.97;1.52;;;2.00;99.90;;;;;;5001743;28;20030;-69
2024/01/13 02:44:53;;;;;;;3.17;1.40;;;2.00;99.90;;;;;;4992843;28;20093;-70
2024/01/13 02:47:28;;;;;;;2.65;1.38;;;1.90;99.90;;;;;;4994764;28;20105;-69
2024/01/13 02:49:53;;;;;;;2.17;1.20;;;1.90;99.90;;;;;;4997982;28;20048;-70
2024/01/13 02:52:19;;;;;;;4.45;1.83;;;2.00;99.90;;;;;;4999769;28;20351;-69
2024/01/13 02:54:44;;;;;;;2.92;1.45;;;1.90;99.90;;;;;;4991597;28;20042;-70
2024/01/13 02:57:10;;;;;;;1.92;1.10;;;2.00;99.90;;;;;;4980113;28;20430;-69
2024/01/13 02:59:35;;;;;;;2.80;1.55;;;2.00;99.90;;;;;;4991255;28;20111;-70
2024/01/13 03:02:01;;;;;;;2.95;1.25;;;2.00;99.90;;;;;;4991655;28;20026;-69
2024/01/13 03:04:26;;;;;;;1.95;1.08;;;2.00;99.90;;;;;;4996890;28;20042;-69
2024/01/13 03:06:51;;;;;;;3.22;1.45;;;1.90;99.90;;;;;;4999327;28;20393;-69
2024/01/13 03:09:17;;;;;;;1.85;1.10;;;1.90;99.90;;;;;;4994857;28;20048;-70
2024/01/13 03:11:42;;;;;;;2.60;1.50;;;1.90;99.90;;;;;;4996573;28;20152;-69
2024/01/13 03:14:08;;;;;;;2.35;1.25;;;1.90;99.90;;;;;;4992943;28;20033;-69
2024/01/13 03:16:33;;;;;;;2.75;1.50;;;1.90;99.90;;;;;;4998043;28;20041;-68
2024/01/13 03:18:59;;;;;;;2.15;1.27;;;2.00;99.90;;;;;;4994681;28;20045;-69
2024/01/13 03:21:24;;;;;;;1.38;0.90;;;1.90;99.90;;;;;;4999945;28;20052;-70
2024/01/13 03:23:50;;;;;;;2.42;1.05;;;1.90;99.90;;;;;;4992837;28;20129;-69
2024/01/13 03:26:15;;;;;;;2.17;0.98;;;1.90;99.90;;;;;;4990959;28;20075;-70
2024/01/13 03:28:41;;;;;;;3.40;1.33;;;1.90;99.90;;;;;;4988340;28;20077;-69
2024/01/13 03:31:06;;;;;;;2.25;1.15;;;1.90;99.90;;;;;;4996232;28;20423;-69
2024/01/13 03:33:32;;;;;;;2.20;0.90;;;1.90;99.90;;;;;;4992653;28;20046;-69
2024/01/13 03:35:57;;;;;;;2.30;1.63;;;1.90;99.90;;;;;;5003778;28;20026;-68
2024/01/13 03:38:25;;;;;;;3.25;1.50;;;1.90;99.90;;;;;;4991833;28;20406;-69
2024/01/13 03:40:50;;;;;;;1.52;0.90;;;1.90;99.90;;;;;;4997423;28;20034;-69
2024/01/13 03:43:15;;;;;;;3.22;1.17;;;1.80;99.90;;;;;;4993615;28;20117;-69
2024/01/13 03:45:41;;;;;;;1.98;1.27;;;1.90;99.90;;;;;;4991164;28;20058;-69
2024/01/13 03:48:06;;;;;;;1.65;0.93;;;1.90;99.90;;;;;;5004646;28;20078;-71
2024/01/13 03:50:32;;;;;;;1.38;0.85;;;1.90;99.90;;;;;;5002096;28;20398;-69
2024/01/13 03:52:58;;;;;;;3.70;1.23;;;1.90;99.90;;;;;;4997887;28;20035;-71
2024/01/13 03:55:23;;;;;;;4.10;1.65;;;1.90;99.90;;;;;;4995129;28;20076;-69
2024/01/13 03:57:49;;;;;;;3.22;1.17;;;1.90;99.90;;;;;;5001604;28;20114;-69
2024/01/13 04:00:14;;;;;;;7.20;1.83;;;1.90;99.90;;;;;;4991300;28;20117;-69
2024/01/13 04:02:40;;;;;;;3.17;1.45;;;1.90;99.90;;;;;;4998807;28;20038;-69
2024/01/13 04:05:05;;;;;;;3.30;1.40;;;1.90;99.90;;;;;;4998204;28;20034;-69
2024/01/13 04:07:31;;;;;;;4.03;1.83;;;1.90;99.90;;;;;;4994984;28;20042;-69
2024/01/13 04:09:56;;;;;;;1.52;0.95;;;1.90;99.90;;;;;;4995828;28;20434;-69
2024/01/13 04:12:22;;;;;;;3.08;1.42;;;1.90;99.90;;;;;;4995343;28;20034;-69
2024/01/13 04:14:47;;;;;;;2.25;1.30;;;1.90;99.90;;;;;;4989314;28;20081;-70
2024/01/13 04:17:12;;;;;;;2.58;0.98;;;1.90;99.90;;;;;;5002275;28;20137;-68
2024/01/13 04:19:38;;;;;;;2.50;1.17;;;1.90;99.90;;;;;;4995536;28;20438;-69
2024/01/13 04:22:04;;;;;;;2.92;1.10;;;1.90;99.90;;;;;;4994887;28;20220;-69
2024/01/13 04:24:29;;;;;;;2.78;1.10;;;1.90;99.90;;;;;;4992092;28;20573;-69
2024/01/13 04:26:55;;;;;;;2.17;1.00;;;1.90;99.90;;;;;;4996112;28;20120;-69
2024/01/13 04:29:20;;;;;;;2.28;1.02;;;1.90;99.90;;;;;;4992599;28;20386;-69
2024/01/13 04:31:46;;;;;;;1.15;0.70;;;1.90;99.90;;;;;;4997237;28;20408;-70
2024/01/13 04:34:11;;;;;;;2.38;1.23;;;1.90;99.90;;;;;;4996710;28;20101;-69
2024/01/13 04:36:37;;;;;;;3.85;1.60;;;1.90;99.90;;;;;;4999479;28;20038;-69
2024/01/13 04:39:03;;;;;;;2.08;1.17;;;1.90;99.90;;;;;;4993378;28;20485;-69
2024/01/13 04:41:28;;;;;;;2.97;1.55;;;1.90;99.90;;;;;;4982576;28;21020;-69
2024/01/13 04:43:54;;;;;;;2.65;1.15;;;1.90;99.90;;;;;;4997028;28;20451;-69
2024/01/13 04:46:19;;;;;;;3.60;1.52;;;1.90;99.90;;;;;;4996956;28;20201;-69
2024/01/13 04:48:45;;;;;;;1.95;1.15;;;1.90;99.90;;;;;;5004004;28;20029;-71
2024/01/13 04:51:11;;;;;;;1.98;1.13;;;1.90;99.90;;;;;;4996739;28;20465;-69
2024/01/13 04:53:36;;;;;;;2.40;1.10;;;1.90;99.90;;;;;;5003263;28;20033;-71
2024/01/13 04:56:02;;;;;;;3.20;1.30;;;1.90;99.90;;;;;;5002764;28;20053;-69
2024/01/13 04:58:28;;;;;;;2.78;1.30;;;1.90;99.90;;;;;;5001353;28;20065;-69
2024/01/13 05:00:53;;;;;;;2.70;1.13;;;1.90;99.90;;;;;;4995482;28;20033;-68
2024/01/13 05:03:19;;;;;;;4.00;1.40;;;1.80;99.90;;;;;;4979368;28;20049;-68
2024/01/13 05:05:44;;;;;;;2.15;1.00;;;1.80;99.90;;;;;;4996794;28;20034;-69
2024/01/13 05:08:10;;;;;;;4.60;1.77;;;1.90;99.90;;;;;;5000411;28;20062;-68
2024/01/13 05:10:35;;;;;;;4.50;1.20;;;1.80;99.90;;;;;;4993593;28;20576;-70
2024/01/13 05:13:00;;;;;;;2.78;1.40;;;1.80;99.90;;;;;;4991097;28;20066;-70
2024/01/13 05:15:26;;;;;;;2.28;1.25;;;1.90;99.90;;;;;;4983149;28;20114;-69
2024/01/13 05:17:51;;;;;;;3.10;1.20;;;1.90;99.90;;;;;;5001548;28;20435;-68
2024/01/13 05:20:17;;;;;;;2.67;1.42;;;1.80;99.90;;;;;;4999971;28;20104;-68
2024/01/13 05:22:42;;;;;;;1.77;0.95;;;1.80;99.90;;;;;;4999753;28;20137;-68
2024/01/13 05:25:08;;;;;;;3.38;1.40;;;1.80;99.90;;;;;;4996103;28;20038;-68
2024/01/13 05:27:33;;;;;;;3.33;1.63;;;1.80;99.90;;;;;;4999682;28;20129;-69
2024/01/13 05:29:59;;;;;;;2.22;1.17;;;1.80;99.90;;;;;;4996678;28;20029;-70
2024/01/13 05:32:24;;;;;;;3.90;1.38;;;1.80;99.90;;;;;;5004890;28;20475;-70
2024/01/13 05:34:50;;;;;;;3.28;1.40;;;1.80;99.90;;;;;;5007871;28;20022;-69
2024/01/13 05:37:15;;;;;;;2.50;1.23;;;1.90;99.90;;;;;;5005256;28;20091;-68
2024/01/13 05:39:41;;;;;;;2.10;1.02;;;1.80;99.90;;;;;;5000543;28;20046;-68
2024/01/13 05:42:08;;;;;;;2.47;1.23;;;1.80;99.90;;;;;;4993754;28;20038;-68
2024/01/13 05:44:34;;;;;;;2.53;1.17;;;1.80;99.90;;;;;;4994855;28;20049;-68
2024/01/13 05:46:59;;;;;;;2.75;1.40;;;1.90;99.90;;;;;;5000687;28;20120;-69
2024/01/13 05:49:25;;;;;;;2.85;1.52;;;1.90;99.90;;;;;;5003498;28;20125;-70
2024/01/13 05:51:50;;;;;;;2.95;1.35;;;1.80;99.90;;;;;;5001631;28;20052;-68
2024/01/13 05:54:16;;;;;;;2.55;1.35;;;1.80;99.90;;;;;;4996625;28;20092;-68
2024/01/13 05:56:42;;;;;;;2.47;1.48;;;1.90;99.90;;;;;;4996670;28;20118;-68
2024/01/13 05:59:07;;;;;;;2.90;1.20;;;1.80;99.90;;;;;;4994990;28;20038;-68
2024/01/13 06:01:33;;;;;;;3.47;1.45;;;1.80;99.90;;;;;;5002242;28;20104;-68
2024/01/13 06:03:58;;;;;;;1.65;1.00;;;1.80;99.90;;;;;;4993554;28;20758;-69
2024/01/13 06:06:24;;;;;;;2.15;1.20;;;1.80;99.90;;;;;;4994523;28;20056;-69
2024/01/13 06:08:49;;;;;;;2.00;0.88;;;1.80;99.90;;;;;;4993847;28;20049;-68
2024/01/13 06:11:15;;;;;;;1.52;0.90;;;1.90;99.90;;;;;;4992577;28;20034;-68
2024/01/13 06:13:41;;;;;;;1.83;0.98;;;1.80;99.90;;;;;;5000625;28;20037;-69
2024/01/13 06:16:07;;;;;;;1.65;1.08;;;1.90;99.90;;;;;;4999438;28;20026;-68
2024/01/13 06:18:33;;;;;;;2.30;0.85;;;1.90;99.90;;;;;;5003612;28;20060;-68
2024/01/13 06:21:00;;;;;;;1.98;1.08;;;1.90;99.90;;;;;;5000526;28;20121;-68
2024/01/13 06:23:26;;;;;;;1.48;1.17;;;1.90;99.90;;;;;;4995037;28;20045;-69
2024/01/13 06:25:51;;;;;;;2.20;0.90;;;1.90;99.90;;;;;;5003813;28;20041;-68
2024/01/13 06:28:16;;;;;;;2.03;1.13;;;1.90;99.90;;;;;;4999084;28;20064;-69
2024/01/13 06:30:42;;;;;;;2.85;1.13;;;1.90;99.90;;;;;;4997975;28;20109;-68
2024/01/13 06:33:07;;;;;;;1.30;0.63;;;1.90;99.90;;;;;;4997819;28;20034;-68
2024/01/13 06:35:33;;;;;;;1.90;0.85;;;1.90;99.90;;;;;;4999210;28;20426;-68
2024/01/13 06:37:58;;;;;;;1.88;1.08;;;1.90;99.90;;;;;;5004280;28;20034;-69
2024/01/13 06:40:24;;;;;;;2.05;1.05;;;1.90;99.90;;;;;;4999546;28;20121;-69
2024/01/13 06:42:49;;;;;;;1.88;1.05;;;1.90;99.90;;;;;;5001036;28;20128;-68
2024/01/13 06:45:15;;;;;;;3.03;1.30;;;1.90;99.90;;;;;;4991990;28;20054;-69
2024/01/13 06:47:40;;;;;;;1.05;0.68;;;1.80;99.90;;;;;;4999956;28;20041;-69
2024/01/13 06:50:06;;;;;;;2.47;1.08;;;1.90;99.90;;;;;;4997865;28;20100;-68
2024/01/13 06:52:31;;;;;;;2.78;1.30;;;1.80;99.90;;;;;;4996133;28;20045;-68
2024/01/13 06:54:57;;;;;;;2.38;1.10;;;1.80;99.90;;;;;;5000991;28;20065;-68
2024/01/13 06:57:22;;;;;;;2.67;1.10;;;1.80;99.90;;;;;;4979578;28;20041;-68
2024/01/13 06:59:48;;;;;;;1.50;0.95;;;1.90;99.90;;;;;;4997688;28;20168;-69
2024/01/13 07:02:14;;;;;;;1.33;0.70;;;1.80;99.90;;;;;;5002313;28;20038;-68
2024/01/13 07:04:40;;;;;;;2.08;1.08;;;1.80;99.90;;;;;;4999885;28;20098;-68
2024/01/13 07:07:06;;;;;;;1.67;0.70;;;1.80;99.90;;;;;;5002819;28;20366;-68
2024/01/13 07:09:32;;;;;;;1.65;1.00;;;1.80;99.90;;;;;;4995817;28;20042;-68
2024/01/13 07:11:58;;;;;;;2.65;1.40;;;1.80;99.90;;;;;;5000006;28;20117;-69
2024/01/13 07:14:23;;;;;;;1.95;1.10;;;1.90;99.90;;;;;;4994676;28;20472;-70
2024/01/13 07:16:49;;;;;;;2.47;0.95;;;1.80;99.90;;;;;;4990497;28;20462;-70
2024/01/13 07:19:15;;;;;;;3.17;1.30;;;1.90;99.90;;;;;;4997174;28;20347;-68
2024/01/13 07:21:41;;;;;;;3.33;1.60;;;1.90;99.90;;;;;;5000247;28;20037;-69
2024/01/13 07:24:08;;;;;;;2.75;1.67;;;1.80;99.90;;;;;;4993498;28;20033;-68
2024/01/13 07:26:38;;;;;;;3.22;1.85;;;1.90;99.90;;;;;;4999468;28;20029;-69
2024/01/13 07:29:03;;;;;;;3.80;1.95;;;1.80;99.90;;;;;;4995504;28;20039;-69
2024/01/13 07:31:29;;;;;;;4.85;2.10;;;1.90;99.90;;;;;;4993584;28;20061;-68
2024/01/13 07:33:55;;;;;;;4.15;2.00;;;1.80;99.90;;;;;;4995941;28;20109;-68
2024/01/13 07:36:21;;;;;;;3.92;1.65;;;1.80;99.90;;;;;;4997393;28;20363;-69
2024/01/13 07:38:46;;;;;;;4.70;2.00;;;1.90;99.90;;;;;;5001537;28;20042;-69
2024/01/13 07:41:12;;;;;;;6.40;2.20;;;1.80;99.90;;;;;;4988706;28;20026;-69
2024/01/13 07:43:37;;;;;;;3.55;1.83;;;1.90;99.90;;;;;;4993517;28;20086;-68
2024/01/13 07:46:03;;;;;;;3.03;1.40;;;1.80;99.90;;;;;;4994558;28;20050;-69
2024/01/13 07:48:28;;;;;;;4.05;1.90;;;1.80;99.90;;;;;;4996401;28;20363;-69
2024/01/13 07:50:54;;;;;;;3.88;1.95;;;1.80;99.90;;;;;;5000716;28;20090;-68
2024/01/13 07:53:19;;;;;;;2.78;1.58;;;1.90;99.90;;;;;;5000858;28;20034;-69
2024/01/13 07:55:45;;;;;;;3.33;1.45;;;1.90;99.90;;;;;;5000505;28;20374;-70
2024/01/13 07:58:10;;;;;;;2.58;1.45;;;1.90;99.90;;;;;;4993131;28;20104;-68
2024/01/13 08:00:36;;;;;;;2.72;1.67;;;1.90;99.90;;;;;;5002301;28;20055;-67
2024/01/13 08:03:01;;;;;;;1.85;1.15;;;1.90;99.90;;;;;;4995877;28;20092;-68
2024/01/13 08:05:26;;;;;;;1.90;1.13;;;1.90;99.90;;;;;;4998839;28;20400;-68
2024/01/13 08:07:52;;;;;;;3.33;1.85;;;2.00;99.90;;;;;;4996327;28;20034;-68
2024/01/13 08:10:17;;;;;;;3.47;1.63;;;2.00;99.90;;;;;;4998569;28;20062;-68
2024/01/13 08:12:43;;;;;;;2.33;1.38;;;2.00;99.90;;;;;;4997231;28;20025;-68
2024/01/13 08:15:09;;;;;;;3.42;1.75;;;2.00;99.90;;;;;;4991332;28;20112;-68
2024/01/13 08:17:34;;;;;;;1.50;0.90;;;2.00;99.90;;;;;;4980046;28;20523;-69
2024/01/13 08:20:02;;;;;;;2.92;1.50;;;2.00;99.90;;;;;;4999981;28;20497;-69
2024/01/13 08:22:27;;;;;;;2.35;1.20;;;2.00;99.90;;;;;;4998241;28;20431;-68
2024/01/13 08:24:53;;;;;;;3.90;1.65;;;2.00;99.90;;;;;;4999263;28;20117;-68
2024/01/13 08:27:18;;;;;;;2.63;1.27;;;2.00;99.90;;;;;;5006150;28;20043;-68
2024/01/13 08:29:43;;;;;;;2.63;1.55;;;2.00;99.90;;;;;;5002097;28;20138;-69
2024/01/13 08:32:10;;;;;;;2.65;1.20;;;2.10;99.90;;;;;;4983837;28;20038;-68
2024/01/13 08:34:35;;;;;;;3.90;1.65;;;2.10;99.90;;;;;;4995947;28;20041;-68
2024/01/13 08:37:00;;;;;;;1.38;0.90;;;2.10;99.90;;;;;;4996980;28;20346;-68
2024/01/13 08:39:26;;;;;;;2.20;1.13;;;2.10;99.90;;;;;;4999279;28;20050;-68
2024/01/13 08:41:52;;;;;;;2.30;0.90;;;2.10;99.90;;;;;;4993602;28;20030;-68
2024/01/13 08:44:17;;;;;;;2.03;1.05;;;2.00;99.90;;;;;;4991809;28;20521;-69
2024/01/13 08:46:43;;;;;;;1.52;1.00;;;2.00;99.90;;;;;;4989900;28;20138;-69
2024/01/13 08:49:08;;;;;;;2.35;1.10;;;2.00;99.90;;;;;;4989630;28;20046;-69
2024/01/13 08:51:34;;;;;;;2.20;1.08;;;2.00;99.90;;;;;;4975968;28;20041;-69
2024/01/13 08:53:59;;;;;;;3.25;1.65;;;2.10;99.90;;;;;;4990067;28;20911;-69
2024/01/13 08:56:25;;;;;;;3.60;1.50;;;2.00;99.90;;;;;;4992762;28;20030;-70
2024/01/13 08:58:51;;;;;;;2.70;1.50;;;2.10;99.90;;;;;;4993361;28;20030;-70
2024/01/13 09:01:17;;;;;;;3.45;2.03;;;2.10;99.90;;;;;;4996062;28;20149;-69
2024/01/13 09:03:43;;;;;;;2.75;1.40;;;2.10;99.90;;;;;;4986890;28;20058;-69
2024/01/13 09:06:09;;;;;;;3.88;1.77;;;2.10;99.90;;;;;;4995126;28;20380;-69
2024/01/13 09:08:35;;;;;;;4.55;2.35;;;2.10;99.90;;;;;;4992334;28;20030;-71
2024/01/13 09:11:00;;;;;;;3.05;1.80;;;2.10;99.90;;;;;;4995031;28;20045;-71
2024/01/13 09:13:26;;;;;;;4.32;2.35;;;2.10;99.90;;;;;;5004731;28;20352;-69
2024/01/13 09:15:51;;;;;;;5.28;2.28;;;2.10;99.90;;;;;;4979769;28;20038;-67
2024/01/13 09:18:17;;;;;;;5.03;1.98;;;2.10;99.90;;;;;;4999496;28;20026;-68
2024/01/13 09:20:42;;;;;;;7.22;2.85;;;2.10;99.90;;;;;;5001401;28;20032;-66
2024/01/13 09:23:08;;;;;;;6.93;3.00;;;2.10;99.90;;;;;;5002373;28;20034;-70
2024/01/13 09:25:33;;;;;;;4.15;2.13;;;2.10;99.90;;;;;;5001854;28;20034;-69
2024/01/13 09:27:58;;;;;;;6.53;2.60;;;2.10;99.90;;;;;;5003851;28;20105;-67
2024/01/13 09:30:24;;;;;;;5.32;2.40;;;2.20;99.90;;;;;;4994935;28;20123;-68
2024/01/13 09:32:49;;;;;;;4.60;2.22;;;2.20;99.90;;;;;;4999243;28;20034;-71
2024/01/13 09:35:15;;;;;;;7.85;2.78;;;2.20;99.90;;;;;;5003679;28;20049;-69
2024/01/13 09:37:42;;;;;;;4.30;2.38;;;2.20;99.90;;;;;;5002742;28;20030;-67
2024/01/13 09:40:08;;;;;;;4.50;2.15;;;2.30;99.90;;;;;;4999286;28;20093;-67
2024/01/13 09:42:58;;;;;;;6.60;2.65;;;2.20;99.90;;;;;;5000237;28;20125;-67
2024/01/13 09:45:25;;;;;;;3.67;1.92;;;2.20;99.90;;;;;;4984270;28;20061;-68
2024/01/13 09:47:50;;;;;;;5.10;2.50;;;2.20;99.90;;;;;;4995276;28;20084;-68
2024/01/13 09:50:16;;;;;;;5.47;2.53;;;2.20;99.90;;;;;;4997681;28;20077;-66
2024/01/13 09:52:45;;;;;;;4.40;2.30;;;2.30;99.90;;;;;;4998753;28;20466;-66
2024/01/13 09:55:14;;;;;;;7.72;2.85;;;2.30;99.90;;;;;;5002768;28;20072;-66
2024/01/13 09:57:40;;;;;;;4.90;2.35;;;2.30;99.90;;;;;;5004992;28;20070;-68
2024/01/13 10:00:06;;;;;;;5.43;2.42;;;2.30;99.90;;;;;;4999421;28;20061;-66
2024/01/13 10:02:32;;;;;;;5.70;2.35;;;2.40;99.90;;;;;;5007473;28;20469;-66
2024/01/13 10:04:57;;;;;;;5.22;2.03;;;2.40;99.90;;;;;;5003095;28;20109;-67
2024/01/13 10:07:23;;;;;;;4.03;1.98;;;2.40;99.90;;;;;;5000976;28;20042;-67
2024/01/13 10:09:48;;;;;;;6.53;2.88;;;2.30;99.90;;;;;;5003690;28;20478;-66
2024/01/13 10:12:14;;;;;;;4.07;2.03;;;2.30;99.90;;;;;;5001854;28;20125;-67
2024/01/13 10:14:42;;;;;;;3.88;1.83;;;2.30;99.90;;;;;;5001166;28;20092;-67
2024/01/13 10:17:08;;;;;;;5.80;2.05;;;2.30;99.90;;;;;;5000622;28;20034;-68
2024/01/13 10:19:41;;;;;;;5.00;2.20;;;2.30;99.90;;;;;;4994939;28;20092;-67
2024/01/13 10:22:07;;;;;;;4.28;2.10;;;2.30;99.90;;;;;;4996983;28;20104;-67
2024/01/13 10:24:34;;;;;;;4.45;2.22;;;2.30;99.90;;;;;;5000158;28;20069;-66
2024/01/13 10:26:59;;;;;;;3.13;1.63;;;2.30;99.90;;;;;;4999014;28;20101;-68
2024/01/13 10:29:25;;;;;;;4.82;2.15;;;2.30;99.90;;;;;;4994829;28;20034;-68
2024/01/13 10:31:51;;;;;;;4.10;1.65;;;2.30;99.90;;;;;;4992835;28;20114;-67
2024/01/13 10:34:20;;;;;;;5.00;2.08;;;2.30;99.90;;;;;;4998179;28;20109;-67
2024/01/13 10:36:45;;;;;;;3.53;1.90;;;2.30;99.90;;;;;;4991094;28;20054;-67
2024/01/13 10:39:11;;;;;;;3.85;1.80;;;2.30;99.90;;;;;;4996312;28;20060;-67
2024/01/13 10:41:43;;;;;;;5.22;2.55;;;2.40;99.90;;;;;;5000646;28;20049;-67
2024/01/13 10:44:09;;;;;;;3.25;1.60;;;2.40;99.90;;;;;;4987443;28;20566;-67
2024/01/13 10:46:38;;;;;;;5.15;2.47;;;2.40;99.90;;;;;;4993810;28;20104;-67
2024/01/13 10:49:11;;;;;;;4.45;1.77;;;2.30;99.90;;;;;;4992171;28;20069;-66
2024/01/13 10:51:43;;;;;;;5.72;2.38;;;2.40;99.90;;;;;;4997437;28;20034;-67
2024/01/13 10:54:09;;;;;;;4.07;1.88;;;2.40;99.90;;;;;;4992055;28;20116;-67
2024/01/13 10:56:38;;;;;;;4.10;1.88;;;2.40;99.90;;;;;;4979937;28;20084;-67
2024/01/13 10:59:04;;;;;;;4.15;2.38;;;2.40;99.90;;;;;;4974017;28;20038;-69
2024/01/13 11:01:31;;;;;;;3.03;1.70;;;2.50;99.90;;;;;;5000750;28;20077;-68
2024/01/13 11:03:58;;;;;;;5.50;2.33;;;2.50;99.90;;;;;;4995489;28;20046;-68
2024/01/13 11:06:24;;;;;;;3.40;1.65;;;2.40;99.90;;;;;;5000064;28;20208;-69
2024/01/13 11:08:51;;;;;;;3.40;1.55;;;2.50;99.90;;;;;;4995855;28;20548;-68
2024/01/13 11:11:23;;;;;;;4.32;2.05;;;2.50;99.90;;;;;;4999070;28;20061;-68
2024/01/13 11:14:21;;;;;;;4.47;2.15;;;2.50;99.90;;;;;;4991272;28;20034;-68
2024/01/13 11:16:47;;;;;;;3.22;1.52;;;2.50;99.90;;;;;;4993828;28;20030;-68
2024/01/13 11:19:13;;;;;;;4.05;1.80;;;2.50;99.90;;;;;;4996115;28;20404;-67
2024/01/13 11:21:41;;;;;;;2.78;1.33;;;2.60;99.90;;;;;;5001004;28;20108;-67
2024/01/13 11:24:12;;;;;;;4.15;2.05;;;2.50;99.90;;;;;;4995990;28;20409;-67
2024/01/13 11:26:43;;;;;;;5.82;2.13;;;2.60;99.90;;;;;;5002275;28;20022;-67
2024/01/13 11:29:20;;;;;;;5.13;2.22;;;2.60;99.90;;;;;;4997670;28;20037;-68
2024/01/13 11:31:46;;;;;;;4.75;2.33;;;2.60;99.90;;;;;;4995483;28;20453;-67
2024/01/13 11:34:14;;;;;;;4.93;2.13;;;2.60;99.90;;;;;;4992683;28;20038;-67
2024/01/13 11:36:44;;;;;;;5.88;1.85;;;2.60;99.90;;;;;;5000243;28;20355;-67
2024/01/13 11:39:10;;;;;;;6.40;2.30;;;2.60;99.90;;;;;;4991966;28;20550;-68
2024/01/13 11:41:43;;;;;;;3.45;1.55;;;2.60;99.90;;;;;;5001354;28;20097;-68
2024/01/13 11:44:10;;;;;;;4.85;2.67;;;2.60;99.90;;;;;;4999137;28;20112;-67
2024/01/13 11:46:38;;;;;;;4.55;2.03;;;2.60;99.90;;;;;;5004305;28;20068;-68
2024/01/13 11:49:04;;;;;;;5.15;2.30;;;2.60;99.90;;;;;;4996929;28;20036;-68
2024/01/13 11:51:57;;;;;;;3.63;2.03;;;2.60;99.90;;;;;;4991663;28;20419;-67
2024/01/13 11:54:23;;;;;;;4.28;2.25;;;2.60;99.90;;;;;;4981400;28;20459;-67
2024/01/13 11:56:49;;;;;;;5.45;2.65;;;2.60;99.90;;;;;;4985776;28;20038;-67
2024/01/13 11:59:16;;;;;;;2.80;1.60;;;2.60;99.90;;;;;;4997583;28;20026;-73
2024/01/13 12:01:42;;;;;;;4.60;2.17;;;2.70;99.90;;;;;;4979543;28;20510;-67
2024/01/13 12:04:08;;;;;;;4.65;2.35;;;2.70;99.90;;;;;;4994495;28;20371;-68
2024/01/13 12:06:34;;;;;;;5.03;2.30;;;2.60;99.90;;;;;;5000156;28;20117;-67
2024/01/13 12:09:00;;;;;;;5.88;2.47;;;2.70;99.90;;;;;;5003976;28;20108;-67
2024/01/13 12:11:27;;;;;;;5.28;2.55;;;2.70;99.90;;;;;;4996002;28;20045;-68
2024/01/13 12:13:53;;;;;;;7.72;3.15;;;2.70;99.90;;;;;;4993867;28;20454;-67
2024/01/13 12:16:19;;;;;;;5.38;2.33;;;2.70;99.90;;;;;;4994443;28;20040;-67
2024/01/13 12:18:47;;;;;;;4.88;2.67;;;2.70;99.90;;;;;;5004177;28;20030;-66
2024/01/13 12:21:14;;;;;;;10.10;3.70;;;2.70;99.90;;;;;;5006129;28;20034;-66
2024/01/13 12:23:42;;;;;;;6.80;2.72;;;2.80;99.90;;;;;;5009172;28;20022;-67
2024/01/13 12:26:08;;;;;;;7.85;3.38;;;2.80;99.90;;;;;;4998393;28;20241;-67
2024/01/13 12:28:34;;;;;;;7.03;3.35;;;2.70;99.90;;;;;;5002675;28;20034;-69
2024/01/13 12:31:03;;;;;;;6.70;3.05;;;2.70;99.90;;;;;;4998945;28;20080;-69
2024/01/13 12:33:29;;;;;;;9.73;3.60;;;2.70;99.90;;;;;;5002189;28;20419;-70
2024/01/13 12:35:59;;;;;;;6.32;3.30;;;2.70;99.90;;;;;;5006397;28;20037;-68
2024/01/13 12:38:30;;;;;;;9.25;3.83;;;2.80;99.90;;;;;;5001685;28;20375;-67
2024/01/13 12:40:59;;;;;;;8.75;3.70;;;2.80;99.90;;;;;;4979141;28;20096;-70
2024/01/13 12:43:25;;;;;;;8.52;3.20;;;2.80;99.90;;;;;;5002365;28;20411;-68
2024/01/13 12:45:52;;;;;;;9.75;3.83;;;2.80;99.90;;;;;;4997435;28;20046;-70
2024/01/13 12:48:19;;;;;;;8.07;3.42;;;2.80;99.90;;;;;;5002824;28;20344;-67
2024/01/13 12:50:45;;;;;;;7.32;3.45;;;2.80;99.90;;;;;;4996852;28;20129;-67
2024/01/13 12:53:13;;;;;;;10.35;4.18;;;2.80;99.90;;;;;;4996030;28;20125;-67